Time;durP1;ratioP1;P1;durP2;ratioP2;P2;SDS_P1;SDS_P2;PMS_P1;PMS_P2;Temp;Humidity;BMP_temperature;BMP_pressure;BME280_temperature;BME280_humidity;BME280_pressure;Samples;Min_cycle;Max_cycle;Signal;HPM_P1;HPM_P2
2021/09/11 00:01:20;;;;;;;4.57;2.30;;;;;;;22.70;64.19;101445.47;5054909;28;20689;-63
2021/09/11 00:03:46;;;;;;;3.70;1.90;;;;;;;22.73;64.01;101445.19;5054149;28;20025;-63
2021/09/11 00:06:11;;;;;;;4.57;2.25;;;;;;;22.72;64.30;101448.81;5054402;28;20029;-62
2021/09/11 00:08:36;;;;;;;3.63;2.20;;;;;;;22.72;63.93;101448.00;5053936;28;20419;-63
2021/09/11 00:11:02;;;;;;;6.50;2.60;;;;;;;22.70;63.84;101442.81;5054357;28;20293;-63
2021/09/11 00:13:27;;;;;;;3.22;2.00;;;;;;;22.71;64.01;101443.66;5054825;28;20055;-64
2021/09/11 00:15:53;;;;;;;4.15;2.30;;;;;;;22.72;64.04;101448.00;5053617;28;20384;-63
2021/09/11 00:18:19;;;;;;;5.22;2.25;;;;;;;22.71;64.29;101446.31;5054677;28;20460;-62
2021/09/11 00:20:44;;;;;;;4.93;2.30;;;;;;;22.71;64.01;101446.31;5054454;28;20037;-63
2021/09/11 00:23:11;;;;;;;4.33;2.33;;;;;;;22.70;64.31;101448.13;5053328;28;20306;-63
2021/09/11 00:25:37;;;;;;;4.13;2.38;;;;;;;22.70;64.26;101448.13;5054060;28;20361;-63
2021/09/11 00:28:02;;;;;;;4.30;2.08;;;;;;;22.69;64.07;101438.47;5053693;28;20067;-63
2021/09/11 00:30:28;;;;;;;4.57;2.35;;;;;;;22.69;64.08;101435.81;5053009;28;20115;-63
2021/09/11 00:32:53;;;;;;;3.97;2.15;;;;;;;22.67;64.09;101428.97;5053557;28;20332;-62
2021/09/11 00:35:19;;;;;;;3.80;2.30;;;;;;;22.69;63.88;101441.13;5054233;28;20065;-64
2021/09/11 00:37:45;;;;;;;4.53;2.35;;;;;;;22.68;63.78;101439.44;5053237;28;20344;-63
2021/09/11 00:40:13;;;;;;;5.30;2.47;;;;;;;22.67;63.89;101428.97;5053884;28;20028;-63
2021/09/11 00:42:47;;;;;;;4.65;2.17;;;;;;;22.69;63.76;101440.31;5054142;28;20075;-62
2021/09/11 00:45:15;;;;;;;4.03;2.00;;;;;;;22.65;63.89;101437.06;5053363;28;20025;-63
2021/09/11 00:47:40;;;;;;;3.65;2.38;;;;;;;22.67;64.16;101435.13;5053686;28;20052;-62
2021/09/11 00:50:09;;;;;;;4.32;2.60;;;;;;;22.65;64.10;101437.06;5053712;28;20017;-62
2021/09/11 00:52:37;;;;;;;4.25;2.40;;;;;;;22.67;63.89;101440.44;5052914;28;20058;-62
2021/09/11 00:55:03;;;;;;;3.90;2.20;;;;;;;22.66;63.78;101451.22;5053713;28;20100;-62
2021/09/11 00:57:29;;;;;;;5.20;2.65;;;;;;;22.66;64.02;101443.25;5054000;28;20496;-63
2021/09/11 00:59:54;;;;;;;4.80;2.03;;;;;;;22.66;63.73;101445.91;5052381;28;20043;-62
2021/09/11 01:02:19;;;;;;;4.20;2.28;;;;;;;22.66;63.66;101445.91;5053080;28;20021;-63
2021/09/11 01:04:48;;;;;;;4.13;2.20;;;;;;;22.62;63.60;101440.00;5052801;28;20302;-63
2021/09/11 01:07:13;;;;;;;4.40;2.00;;;;;;;22.64;63.95;101438.91;5053875;28;20274;-63
2021/09/11 01:09:38;;;;;;;4.43;2.33;;;;;;;22.63;63.90;101445.19;5053753;28;20031;-62
2021/09/11 01:12:06;;;;;;;4.70;2.10;;;;;;;22.62;63.84;101442.66;5052480;28;20693;-62
2021/09/11 01:14:31;;;;;;;3.83;2.20;;;;;;;22.64;63.78;101443.38;5053441;28;20025;-63
2021/09/11 01:16:56;;;;;;;4.33;2.30;;;;;;;22.62;63.56;101440.00;5053143;28;20098;-64
2021/09/11 01:19:22;;;;;;;4.13;2.10;;;;;;;22.63;63.51;101445.19;5052794;28;20277;-63
2021/09/11 01:21:47;;;;;;;4.60;2.25;;;;;;;22.62;63.43;101438.19;5053320;28;20028;-64
2021/09/11 01:24:12;;;;;;;4.95;2.40;;;;;;;22.61;63.70;101444.47;5053449;28;20395;-63
2021/09/11 01:26:38;;;;;;;4.50;2.50;;;;;;;22.61;63.66;101444.47;5052758;28;20472;-63
2021/09/11 01:29:08;;;;;;;3.70;2.20;;;;;;;22.61;63.88;101447.13;5053032;28;20092;-63
2021/09/11 01:31:34;;;;;;;3.83;2.25;;;;;;;22.61;63.67;101435.69;5053177;28;20043;-63
2021/09/11 01:34:00;;;;;;;3.40;1.80;;;;;;;22.61;63.41;101446.31;5051917;28;20143;-63
2021/09/11 01:36:32;;;;;;;3.95;2.17;;;;;;;22.60;63.66;101440.13;5053406;28;20033;-62
2021/09/11 01:38:57;;;;;;;4.05;2.30;;;;;;;22.61;63.53;101449.78;5053049;28;20036;-63
2021/09/11 01:41:22;;;;;;;3.65;1.90;;;;;;;22.59;63.45;101446.44;5052590;28;20372;-62
2021/09/11 01:43:48;;;;;;;3.77;2.33;;;;;;;22.60;63.68;101447.28;5052688;28;20033;-63
2021/09/11 01:46:13;;;;;;;3.85;2.33;;;;;;;22.55;63.64;101438.91;5052834;28;20384;-62
2021/09/11 01:48:40;;;;;;;4.47;2.08;;;;;;;22.60;63.48;101444.63;5052546;28;20029;-62
2021/09/11 01:51:05;;;;;;;3.60;2.10;;;;;;;22.59;63.53;101445.63;5052747;28;20028;-62
2021/09/11 01:53:31;;;;;;;4.53;2.30;;;;;;;22.58;63.27;101455.38;5052946;28;20021;-62
2021/09/11 01:55:56;;;;;;;4.28;2.60;;;;;;;22.58;63.07;101457.22;5051828;28;20116;-63
2021/09/11 01:58:21;;;;;;;5.07;2.43;;;;;;;22.58;63.20;101449.25;5053038;28;20029;-62
2021/09/11 02:00:47;;;;;;;4.88;2.20;;;;;;;22.55;63.12;101453.00;5052853;28;20830;-62
2021/09/11 02:03:12;;;;;;;4.18;2.40;;;;;;;22.57;63.35;101456.38;5051934;28;20048;-62
2021/09/11 02:05:38;;;;;;;4.55;2.10;;;;;;;22.57;63.24;101455.53;5052668;28;20028;-63
2021/09/11 02:08:07;;;;;;;3.72;2.08;;;;;;;22.55;63.18;101458.31;5051710;28;20052;-63
2021/09/11 02:10:33;;;;;;;3.90;2.00;;;;;;;22.55;63.37;101458.31;5052515;28;20099;-63
2021/09/11 02:12:59;;;;;;;3.55;2.15;;;;;;;22.56;63.42;101460.00;5051807;28;20456;-63
2021/09/11 02:15:24;;;;;;;4.03;2.13;;;;;;;22.54;62.90;101458.47;5051443;28;20036;-62
2021/09/11 02:17:52;;;;;;;4.40;2.13;;;;;;;22.56;63.14;101460.00;5052201;28;20021;-62
2021/09/11 02:20:18;;;;;;;4.95;2.50;;;;;;;22.54;63.24;101459.31;5052551;28;20021;-63
2021/09/11 02:22:43;;;;;;;3.90;2.15;;;;;;;22.55;63.25;101454.84;5051641;28;20063;-63
2021/09/11 02:25:09;;;;;;;4.05;2.42;;;;;;;22.55;62.96;101457.50;5051993;28;20068;-63
2021/09/11 02:27:35;;;;;;;4.40;2.40;;;;;;;22.54;63.12;101461.97;5052138;28;20021;-62
2021/09/11 02:30:00;;;;;;;5.97;2.20;;;;;;;22.54;63.25;101458.47;5051081;28;20025;-63
2021/09/11 02:32:26;;;;;;;4.07;2.30;;;;;;;22.53;63.16;101460.28;5052247;28;20029;-63
2021/09/11 02:34:51;;;;;;;3.60;2.03;;;;;;;22.54;62.76;101467.28;5051976;28;20021;-63
2021/09/11 02:37:19;;;;;;;4.40;2.37;;;;;;;22.54;63.17;101466.44;5051197;28;20107;-62
2021/09/11 02:39:44;;;;;;;5.47;2.10;;;;;;;22.53;63.11;101457.63;5052010;28;20285;-62
2021/09/11 02:42:13;;;;;;;3.13;1.90;;;;;;;22.50;62.92;101451.75;5051730;28;20017;-62
2021/09/11 02:44:38;;;;;;;5.30;2.15;;;;;;;22.52;62.65;101453.28;5051135;28;20488;-63
2021/09/11 02:47:04;;;;;;;3.95;1.90;;;;;;;22.52;63.08;101458.59;5051559;28;20055;-63
2021/09/11 02:49:30;;;;;;;3.78;1.70;;;;;;;22.52;62.97;101460.44;5052030;28;20017;-63
2021/09/11 02:51:55;;;;;;;5.05;2.20;;;;;;;22.52;62.64;101458.59;5050928;28;20077;-63
2021/09/11 02:54:21;;;;;;;3.88;2.17;;;;;;;22.52;62.70;101471.03;5052955;28;20122;-62
2021/09/11 02:56:46;;;;;;;4.68;2.00;;;;;;;22.50;62.66;101457.06;5068805;28;20051;-62
2021/09/11 02:59:11;;;;;;;4.05;2.13;;;;;;;22.49;62.46;101455.38;5051328;28;20032;-62
2021/09/11 03:01:37;;;;;;;3.80;2.00;;;;;;;22.50;62.67;101455.25;5053539;28;20107;-62
2021/09/11 03:04:02;;;;;;;4.20;1.92;;;;;;;22.49;62.74;101453.56;5053769;28;20131;-63
2021/09/11 03:06:27;;;;;;;4.13;2.20;;;;;;;22.49;62.85;101458.88;5051061;28;20045;-62
2021/09/11 03:08:53;;;;;;;3.30;1.80;;;;;;;22.48;62.81;101462.53;5052125;28;20032;-62
2021/09/11 03:11:18;;;;;;;5.07;2.20;;;;;;;22.49;62.79;101456.22;5053086;28;20029;-62
2021/09/11 03:13:44;;;;;;;3.25;1.60;;;;;;;22.46;62.63;101452.03;5051150;28;20057;-62
2021/09/11 03:16:09;;;;;;;4.32;2.03;;;;;;;22.46;62.56;101452.03;5051781;28;20036;-62
2021/09/11 03:18:38;;;;;;;3.00;1.77;;;;;;;22.48;62.39;101451.03;5051598;28;20021;-62
2021/09/11 03:21:03;;;;;;;5.10;1.90;;;;;;;22.48;62.25;101448.38;5051291;28;20037;-62
2021/09/11 03:23:29;;;;;;;3.47;1.70;;;;;;;22.46;62.29;101446.72;5051865;28;20033;-63
2021/09/11 03:25:54;;;;;;;3.07;1.77;;;;;;;22.46;62.40;101454.69;5054566;28;20017;-63
2021/09/11 03:28:19;;;;;;;3.70;1.80;;;;;;;22.46;62.58;101454.69;5055477;28;20269;-63
2021/09/11 03:30:44;;;;;;;4.25;2.00;;;;;;;22.44;62.41;101453.97;5055553;28;20043;-63
2021/09/11 03:33:10;;;;;;;4.55;1.80;;;;;;;22.47;62.43;101452.88;5054387;28;20388;-63
2021/09/11 03:35:36;;;;;;;3.55;1.77;;;;;;;22.44;61.99;101447.84;5055202;28;20032;-63
2021/09/11 03:38:02;;;;;;;3.63;1.80;;;;;;;22.45;62.10;101460.97;5055180;28;20036;-63
2021/09/11 03:40:27;;;;;;;4.63;1.92;;;;;;;22.43;62.19;101452.31;5054491;28;20021;-63
2021/09/11 03:42:53;;;;;;;3.47;1.70;;;;;;;22.44;62.09;101461.94;5054992;28;20033;-62
2021/09/11 03:45:18;;;;;;;3.47;1.70;;;;;;;22.44;62.09;101464.59;5055498;28;20025;-62
2021/09/11 03:47:46;;;;;;;4.70;1.90;;;;;;;22.42;62.30;101458.59;5054312;28;20286;-63
2021/09/11 03:50:11;;;;;;;3.35;1.65;;;;;;;22.43;62.15;101462.94;5054787;28;20487;-63
2021/09/11 03:52:37;;;;;;;3.47;1.80;;;;;;;22.42;62.10;101457.75;5054986;28;20520;-62
2021/09/11 03:55:05;;;;;;;4.45;1.73;;;;;;;22.42;62.23;101469.22;5054108;28;20079;-63
2021/09/11 03:57:32;;;;;;;3.88;1.88;;;;;;;22.42;62.10;101463.91;5054947;28;20021;-63
2021/09/11 03:59:58;;;;;;;3.45;1.60;;;;;;;22.41;62.32;101462.25;5054649;28;20130;-63
2021/09/11 04:02:23;;;;;;;3.70;1.90;;;;;;;22.42;62.01;101465.72;5054288;28;20425;-63
2021/09/11 04:04:51;;;;;;;4.20;1.80;;;;;;;22.41;62.23;101464.91;5054418;28;20036;-63
2021/09/11 04:07:16;;;;;;;3.75;1.90;;;;;;;22.42;62.03;101463.06;5054923;28;20293;-63
2021/09/11 04:09:41;;;;;;;3.03;1.57;;;;;;;22.41;62.03;101470.22;5054062;28;20384;-63
2021/09/11 04:12:07;;;;;;;3.67;1.83;;;;;;;22.41;62.26;101474.66;5054328;28;20332;-61
2021/09/11 04:14:33;;;;;;;3.47;1.60;;;;;;;22.42;62.01;101471.03;5054975;28;20021;-62
2021/09/11 04:16:58;;;;;;;3.30;1.80;;;;;;;22.40;62.00;101473.84;5053733;28;20448;-62
2021/09/11 04:19:23;;;;;;;3.17;1.70;;;;;;;22.41;62.09;101474.66;5054697;28;20024;-63
2021/09/11 04:21:48;;;;;;;3.05;1.58;;;;;;;22.41;62.21;101474.66;5053490;28;20306;-62
2021/09/11 04:24:14;;;;;;;3.45;1.70;;;;;;;22.41;62.33;101470.22;5054477;28;20056;-62
2021/09/11 04:26:39;;;;;;;3.30;1.65;;;;;;;22.40;62.36;101470.34;5054348;28;20488;-62
2021/09/11 04:29:05;;;;;;;3.13;1.60;;;;;;;22.41;62.09;101472.00;5053518;28;20025;-62
2021/09/11 04:31:31;;;;;;;3.50;1.70;;;;;;;22.41;62.04;101467.56;5054416;28;20531;-63
2021/09/11 04:33:56;;;;;;;2.95;1.63;;;;;;;22.41;61.92;101466.69;5054181;28;20438;-62
2021/09/11 04:36:21;;;;;;;3.57;1.87;;;;;;;22.40;61.94;101465.03;5053325;28;20025;-62
2021/09/11 04:38:47;;;;;;;4.33;1.40;;;;;;;22.40;62.05;101465.03;5054306;28;20760;-63
2021/09/11 04:41:12;;;;;;;3.20;1.63;;;;;;;22.38;62.00;101470.50;5054123;28;20280;-63
2021/09/11 04:43:40;;;;;;;2.80;1.50;;;;;;;22.40;62.27;101473.00;5053423;28;20024;-63
2021/09/11 04:46:08;;;;;;;2.97;1.45;;;;;;;22.39;62.08;101471.31;5053798;28;20037;-62
2021/09/11 04:48:33;;;;;;;3.03;1.60;;;;;;;22.39;62.14;101476.63;5053621;28;20388;-63
2021/09/11 04:50:59;;;;;;;3.45;1.48;;;;;;;22.39;61.86;101474.81;5052969;28;20025;-62
2021/09/11 04:53:24;;;;;;;3.17;1.50;;;;;;;22.39;61.78;101471.31;5054038;28;20048;-62
2021/09/11 04:55:50;;;;;;;3.08;1.35;;;;;;;22.38;61.83;101469.63;5053578;28;20468;-63
2021/09/11 04:58:15;;;;;;;3.97;1.73;;;;;;;22.35;61.72;101473.41;5053277;28;20119;-64
2021/09/11 05:00:41;;;;;;;3.83;1.70;;;;;;;22.38;61.84;101474.94;5054043;28;20100;-64
2021/09/11 05:03:06;;;;;;;3.33;1.60;;;;;;;22.36;62.01;101471.59;5053567;28;20107;-64
2021/09/11 05:05:32;;;;;;;4.65;1.70;;;;;;;22.37;62.03;101474.09;5052956;28;20388;-63
2021/09/11 05:07:57;;;;;;;3.92;1.50;;;;;;;22.38;62.02;101474.94;5053354;28;20104;-63
2021/09/11 05:10:23;;;;;;;4.35;2.08;;;;;;;22.35;61.93;101475.22;5052848;28;20435;-62
2021/09/11 05:12:52;;;;;;;4.10;1.48;;;;;;;22.34;62.12;101473.56;5052091;28;20508;-64
2021/09/11 05:15:18;;;;;;;3.40;1.60;;;;;;;22.36;61.88;101482.22;5052843;28;20033;-63
2021/09/11 05:17:44;;;;;;;3.45;1.50;;;;;;;22.35;61.77;101484.03;5053444;28;20060;-63
2021/09/11 05:20:10;;;;;;;4.15;1.63;;;;;;;22.36;61.85;101488.34;5052254;28;20060;-63
2021/09/11 05:22:35;;;;;;;3.63;2.05;;;;;;;22.36;62.09;101484.88;5053172;28;20469;-63
2021/09/11 05:25:01;;;;;;;3.22;1.63;;;;;;;22.34;61.69;101484.19;5051997;28;20047;-63
2021/09/11 05:27:26;;;;;;;4.50;1.58;;;;;;;22.35;61.92;101484.03;5053289;28;20063;-62
2021/09/11 05:29:51;;;;;;;3.47;1.50;;;;;;;22.34;61.79;101486.81;5052807;28;20408;-64
2021/09/11 05:32:16;;;;;;;2.87;1.43;;;;;;;22.35;61.84;101497.31;5052357;28;20278;-62
2021/09/11 05:34:42;;;;;;;4.05;1.58;;;;;;;22.36;61.94;101495.50;5053346;28;20270;-65
2021/09/11 05:37:07;;;;;;;4.00;1.42;;;;;;;22.35;61.95;101496.44;5052939;28;20021;-64
2021/09/11 05:39:32;;;;;;;5.33;1.70;;;;;;;22.34;61.90;101490.31;5052493;28;20469;-62
2021/09/11 05:41:58;;;;;;;2.97;1.50;;;;;;;22.32;61.90;101494.94;5052936;28;20033;-64
2021/09/11 05:44:25;;;;;;;6.28;1.48;;;;;;;22.28;61.94;101501.44;5053113;28;20021;-62
2021/09/11 05:46:51;;;;;;;3.63;1.60;;;;;;;22.28;62.12;101501.44;5051134;28;20110;-62
2021/09/11 05:49:16;;;;;;;3.70;1.75;;;;;;;22.28;62.32;101504.09;5052949;28;20024;-63
2021/09/11 05:51:41;;;;;;;4.30;1.70;;;;;;;22.28;62.03;101502.28;5052848;28;20135;-63
2021/09/11 05:54:07;;;;;;;3.03;1.63;;;;;;;22.27;61.83;101508.59;5052274;28;20087;-63
2021/09/11 05:56:32;;;;;;;4.57;1.65;;;;;;;22.26;62.02;101506.06;5052982;28;20684;-62
2021/09/11 05:58:57;;;;;;;3.35;1.50;;;;;;;22.27;62.11;101505.94;5052487;28;20025;-63
2021/09/11 06:01:23;;;;;;;3.27;1.40;;;;;;;22.26;62.31;101509.53;5052029;28;20047;-63
2021/09/11 06:03:48;;;;;;;5.65;1.65;;;;;;;22.25;61.90;101512.34;5052376;28;20609;-63
2021/09/11 06:06:13;;;;;;;4.13;1.50;;;;;;;22.27;62.12;101516.53;5052585;28;20057;-63
2021/09/11 06:08:39;;;;;;;3.65;1.65;;;;;;;22.27;61.96;101518.34;5051728;28;20744;-63
2021/09/11 06:11:04;;;;;;;3.47;1.50;;;;;;;22.26;62.10;101516.69;5052016;28;20409;-63
2021/09/11 06:13:36;;;;;;;4.63;1.77;;;;;;;22.27;61.98;101518.34;5052595;28;20107;-64
2021/09/11 06:16:02;;;;;;;4.18;1.60;;;;;;;22.28;61.95;101530.66;5051362;28;20305;-65
2021/09/11 06:18:28;;;;;;;4.90;1.80;;;;;;;22.28;62.24;101520.03;5052294;28;20116;-63
2021/09/11 06:20:54;;;;;;;4.20;1.55;;;;;;;22.31;62.07;101527.75;5052030;28;20048;-65
2021/09/11 06:23:19;;;;;;;4.65;1.70;;;;;;;22.30;62.17;101523.41;5051333;28;20025;-63
2021/09/11 06:25:44;;;;;;;3.03;1.40;;;;;;;22.35;62.33;101533.63;5052144;28;21025;-63
2021/09/11 06:28:10;;;;;;;3.00;1.53;;;;;;;22.36;62.49;101533.50;5051509;28;20128;-63
2021/09/11 06:30:35;;;;;;;4.70;1.48;;;;;;;22.36;62.88;101522.88;5051119;28;20660;-63
2021/09/11 06:33:00;;;;;;;3.88;1.88;;;;;;;22.39;62.53;101529.75;5051691;28;20056;-63
2021/09/11 06:35:28;;;;;;;3.60;1.63;;;;;;;22.39;62.94;101525.25;5051296;28;20037;-62
2021/09/11 06:37:53;;;;;;;4.85;1.80;;;;;;;22.41;62.56;101530.44;5051608;28;20768;-63
2021/09/11 06:40:19;;;;;;;3.40;1.50;;;;;;;22.41;62.68;101535.75;5052032;28;20025;-63
2021/09/11 06:42:44;;;;;;;5.95;1.63;;;;;;;22.42;62.77;101535.59;5051401;28;20028;-62
2021/09/11 06:45:10;;;;;;;5.40;1.50;;;;;;;22.43;62.62;101539.94;5051722;28;20025;-62
2021/09/11 06:47:38;;;;;;;3.72;1.73;;;;;;;22.45;62.71;101540.66;5051700;28;20037;-63
2021/09/11 06:50:03;;;;;;;4.88;1.70;;;;;;;22.45;62.75;101545.97;5050783;28;20464;-63
2021/09/11 06:52:29;;;;;;;7.95;2.05;;;;;;;22.47;63.04;101553.78;5051744;28;20039;-63
2021/09/11 06:54:57;;;;;;;3.88;1.75;;;;;;;22.45;62.95;101548.63;5051916;28;20017;-62
2021/09/11 06:57:26;;;;;;;3.85;1.50;;;;;;;22.46;62.62;101552.09;5051189;28;20021;-64
2021/09/11 06:59:51;;;;;;;3.05;1.58;;;;;;;22.46;62.88;101547.66;5053796;28;20459;-62
2021/09/11 07:02:16;;;;;;;6.47;1.70;;;;;;;22.48;62.86;101554.63;5056122;28;20033;-63
2021/09/11 07:04:42;;;;;;;8.05;1.63;;;;;;;22.48;63.08;101557.28;5055057;28;20021;-63
2021/09/11 07:07:10;;;;;;;4.68;1.58;;;;;;;22.48;63.11;101557.28;5055467;28;20033;-63
2021/09/11 07:09:35;;;;;;;5.13;2.03;;;;;;;22.48;63.47;101555.47;5055962;28;20029;-64
2021/09/11 07:12:01;;;;;;;4.57;1.88;;;;;;;22.50;63.53;101561.50;5054650;28;20575;-62
2021/09/11 07:14:26;;;;;;;5.65;1.48;;;;;;;22.51;63.54;101565.84;5055907;28;20032;-62
2021/09/11 07:16:51;;;;;;;4.65;1.70;;;;;;;22.52;63.33;101571.97;5055519;28;20021;-63
2021/09/11 07:19:17;;;;;;;3.78;1.98;;;;;;;22.52;63.39;101570.16;5054896;28;20028;-63
2021/09/11 07:21:42;;;;;;;4.00;1.80;;;;;;;22.53;63.32;101566.53;5055613;28;20520;-65
2021/09/11 07:24:08;;;;;;;5.05;1.83;;;;;;;22.52;63.72;101566.66;5055258;28;20028;-61
2021/09/11 07:26:33;;;;;;;4.70;1.88;;;;;;;22.53;63.23;101574.50;5054926;28;20025;-64
2021/09/11 07:28:59;;;;;;;5.22;1.95;;;;;;;22.54;63.45;101575.34;5055246;28;20427;-62
2021/09/11 07:31:24;;;;;;;4.40;2.00;;;;;;;22.53;63.40;101571.84;5055582;28;20101;-62
2021/09/11 07:33:49;;;;;;;5.78;1.63;;;;;;;22.56;63.54;101576.88;5054614;28;20478;-62
2021/09/11 07:36:14;;;;;;;3.97;1.50;;;;;;;22.56;63.71;101576.88;5055622;28;20033;-62
2021/09/11 07:38:40;;;;;;;7.03;1.85;;;;;;;22.56;63.43;101576.88;5054179;28;20036;-62
2021/09/11 07:41:05;;;;;;;7.47;2.05;;;;;;;22.58;63.73;101572.25;5055049;28;20025;-66
2021/09/11 07:43:34;;;;;;;4.47;1.77;;;;;;;22.59;63.34;101579.28;5055227;28;20103;-60
2021/09/11 07:46:00;;;;;;;6.03;1.77;;;;;;;22.59;63.52;101573.13;5053950;28;20455;-62
2021/09/11 07:48:28;;;;;;;3.75;1.70;;;;;;;22.58;63.48;101572.25;5055651;28;20420;-66
2021/09/11 07:50:53;;;;;;;4.68;1.90;;;;;;;22.57;63.42;101567.09;5055836;28;20029;-62
2021/09/11 07:53:18;;;;;;;4.68;1.98;;;;;;;22.60;63.40;101570.31;5055369;28;20029;-66
2021/09/11 07:55:44;;;;;;;3.60;1.60;;;;;;;22.58;63.62;101571.44;5057415;28;20025;-64
2021/09/11 07:58:12;;;;;;;4.03;1.83;;;;;;;22.61;63.84;101582.63;5055387;28;20309;-64
2021/09/11 08:00:38;;;;;;;6.50;1.70;;;;;;;22.63;63.84;101578.00;5054920;28;20064;-64
2021/09/11 08:03:03;;;;;;;5.65;1.90;;;;;;;22.63;63.37;101582.50;5055481;28;20041;-64
2021/09/11 08:05:29;;;;;;;4.22;1.92;;;;;;;22.64;63.56;101582.34;5057935;28;20108;-63
2021/09/11 08:07:54;;;;;;;4.73;1.80;;;;;;;22.66;63.35;101587.53;5054588;28;20437;-64
2021/09/11 08:10:20;;;;;;;4.55;1.77;;;;;;;22.66;63.61;101590.19;5054275;28;20266;-63
2021/09/11 08:12:49;;;;;;;4.10;1.95;;;;;;;22.62;63.53;101591.41;5054813;28;20110;-64
2021/09/11 08:15:16;;;;;;;7.53;1.98;;;;;;;22.63;63.39;101587.81;5054891;28;20021;-64
2021/09/11 08:17:42;;;;;;;5.57;1.65;;;;;;;22.64;63.25;101584.19;5055125;28;20025;-62
2021/09/11 08:20:08;;;;;;;4.38;1.80;;;;;;;22.66;63.45;101587.53;5055078;28;20192;-63
2021/09/11 08:22:34;;;;;;;4.57;1.70;;;;;;;22.63;63.32;101579.84;5053867;28;20392;-62
2021/09/11 08:24:59;;;;;;;6.18;1.90;;;;;;;22.65;63.38;101591.16;5054968;28;20461;-62
2021/09/11 08:27:27;;;;;;;4.75;1.70;;;;;;;22.66;63.05;101584.88;5054861;28;20116;-65
2021/09/11 08:29:53;;;;;;;8.15;2.10;;;;;;;22.68;63.50;101588.22;5053810;28;20032;-62
2021/09/11 08:32:18;;;;;;;5.57;1.70;;;;;;;22.70;63.24;101588.09;5054199;28;20041;-64
2021/09/11 08:34:44;;;;;;;3.78;1.88;;;;;;;22.70;63.40;101585.44;5054474;28;20041;-62
2021/09/11 08:37:10;;;;;;;4.45;1.85;;;;;;;22.69;63.25;101599.72;5053978;28;20021;-62
2021/09/11 08:39:35;;;;;;;10.40;2.05;;;;;;;22.72;63.12;101599.44;5054777;28;20024;-61
2021/09/11 08:42:03;;;;;;;5.82;2.00;;;;;;;22.67;63.29;101589.22;5053517;28;20074;-62
2021/09/11 08:44:30;;;;;;;7.05;2.20;;;;;;;22.72;63.28;101599.44;5054824;28;20033;-62
2021/09/11 08:47:01;;;;;;;6.63;2.28;;;;;;;22.69;63.34;101595.22;5053552;28;20132;-64
2021/09/11 08:49:26;;;;;;;4.97;2.00;;;;;;;22.75;63.45;101602.66;5053392;28;20496;-62
2021/09/11 08:51:52;;;;;;;5.63;2.42;;;;;;;22.77;63.27;101602.53;5054067;28;20029;-61
2021/09/11 08:54:21;;;;;;;4.10;1.88;;;;;;;22.77;63.20;101613.97;5054475;28;20032;-63
2021/09/11 08:56:51;;;;;;;3.67;1.77;;;;;;;22.76;63.32;101608.81;5053538;28;20024;-63
2021/09/11 08:59:19;;;;;;;5.90;2.40;;;;;;;22.76;63.45;101611.47;5054374;28;20025;-63
2021/09/11 09:02:02;;;;;;;4.90;1.88;;;;;;;22.75;63.09;101615.94;5053954;28;20021;-63
2021/09/11 09:04:54;;;;;;;5.28;2.08;;;;;;;22.75;63.32;101625.75;5053215;28;20036;-64
2021/09/11 09:07:43;;;;;;;4.47;2.10;;;;;;;22.76;63.32;101624.75;5053776;28;20025;-64
2021/09/11 09:10:14;;;;;;;6.72;2.00;;;;;;;22.75;63.12;101631.06;5052975;28;20040;-63
2021/09/11 09:12:42;;;;;;;5.85;2.10;;;;;;;22.76;63.18;101632.72;5053835;28;20098;-62
2021/09/11 09:15:10;;;;;;;5.13;2.05;;;;;;;22.76;63.07;101636.19;5054418;28;20131;-62
2021/09/11 09:17:39;;;;;;;6.35;2.58;;;;;;;22.77;62.92;101634.41;5052992;28;20021;-63
2021/09/11 09:20:14;;;;;;;5.28;2.50;;;;;;;22.74;62.45;101640.00;5053143;28;20021;-62
2021/09/11 09:22:39;;;;;;;6.35;3.40;;;;;;;22.71;62.36;101638.44;5052523;28;20032;-63
2021/09/11 09:25:19;;;;;;;7.22;3.25;;;;;;;22.67;62.41;101638.84;5051993;28;20029;-62
2021/09/11 09:27:49;;;;;;;6.30;3.10;;;;;;;22.61;62.50;101641.06;5053999;28;20021;-65
2021/09/11 09:30:18;;;;;;;4.80;3.00;;;;;;;22.58;62.81;101632.53;5053891;28;20059;-63
2021/09/11 09:32:50;;;;;;;5.05;2.55;;;;;;;22.58;63.10;101632.53;5052306;28;20102;-62
2021/09/11 09:35:36;;;;;;;4.20;2.30;;;;;;;22.60;62.73;101633.22;5053255;28;20021;-64
2021/09/11 09:38:09;;;;;;;5.38;2.90;;;;;;;22.60;63.01;101639.38;5053118;28;20036;-64
2021/09/11 09:40:51;;;;;;;6.13;2.73;;;;;;;22.61;62.89;101637.56;5053679;28;20031;-64
2021/09/11 09:43:42;;;;;;;6.03;2.70;;;;;;;22.62;62.75;101641.91;5053740;28;20068;-64
2021/09/11 09:46:11;;;;;;;5.38;2.70;;;;;;;22.63;62.81;101639.09;5054943;28;20025;-61
2021/09/11 09:48:40;;;;;;;5.55;2.47;;;;;;;22.63;62.76;101636.44;5054021;28;20049;-63
2021/09/11 09:51:11;;;;;;;7.15;2.45;;;;;;;22.64;63.14;101638.13;5052914;28;20017;-65
2021/09/11 09:53:41;;;;;;;4.20;2.60;;;;;;;22.63;63.10;101631.13;5052268;28;20468;-63
2021/09/11 09:56:07;;;;;;;6.30;2.83;;;;;;;22.64;63.02;101630.16;5052696;28;20025;-63
2021/09/11 09:58:34;;;;;;;5.13;2.45;;;;;;;22.67;63.01;101629.06;5053028;28;20021;-63
2021/09/11 10:00:59;;;;;;;7.43;2.83;;;;;;;22.71;62.78;101632.28;5051915;28;20029;-63
2021/09/11 10:03:25;;;;;;;5.50;2.50;;;;;;;22.73;62.66;101635.63;5052726;28;20075;-64
2021/09/11 10:05:56;;;;;;;4.45;2.55;;;;;;;22.75;63.04;101631.06;5052357;28;20060;-66
2021/09/11 10:08:22;;;;;;;5.25;2.45;;;;;;;22.76;62.90;101630.88;5052732;28;20017;-63
2021/09/11 10:10:49;;;;;;;4.95;2.67;;;;;;;22.79;62.82;101629.78;5053005;28;20032;-64
2021/09/11 10:13:23;;;;;;;4.95;2.50;;;;;;;22.82;62.82;101619.72;5053297;28;20102;-64
2021/09/11 10:16:40;;;;;;;;;;;;;;;;;;;;;
2021/09/11 10:19:19;;;;;;;6.10;2.72;;;;;;;22.86;63.05;101624.75;5050256;28;20091;-62
2021/09/11 10:21:49;;;;;;;5.15;2.53;;;;;;;22.84;62.98;101614.25;5051951;28;20032;-62
2021/09/11 10:24:23;;;;;;;5.50;2.72;;;;;;;22.89;63.53;101625.34;5053033;28;20028;-66
2021/09/11 10:26:54;;;;;;;5.45;2.90;;;;;;;22.92;63.56;101622.41;5052276;28;20060;-64
2021/09/11 10:29:31;;;;;;;5.80;2.60;;;;;;;22.94;63.07;101628.41;5052154;28;20134;-63
2021/09/11 10:32:00;;;;;;;5.63;2.88;;;;;;;22.94;62.89;101628.41;5052464;28;20050;-66
2021/09/11 10:34:47;;;;;;;4.80;2.47;;;;;;;22.92;63.09;101627.72;5052175;28;20029;-65
2021/09/11 10:37:42;;;;;;;5.78;2.60;;;;;;;22.91;63.20;101626.03;5052669;28;20025;-64
2021/09/11 10:40:25;;;;;;;5.95;2.67;;;;;;;22.90;63.16;101626.19;5052456;28;20057;-63
2021/09/11 10:43:01;;;;;;;5.40;2.72;;;;;;;22.89;62.84;101621.81;5051984;28;20032;-65
2021/09/11 10:45:57;;;;;;;6.00;2.80;;;;;;;22.88;63.07;101626.31;5052679;28;20365;-65
2021/09/11 10:48:51;;;;;;;6.88;2.97;;;;;;;22.87;62.91;101618.47;5052868;28;20047;-63
2021/09/11 10:51:24;;;;;;;5.15;2.90;;;;;;;22.87;62.96;101618.47;5052202;28;20029;-63
2021/09/11 10:54:09;;;;;;;6.50;3.45;;;;;;;22.86;63.13;101622.97;5052229;28;20060;-64
2021/09/11 10:56:39;;;;;;;6.40;3.22;;;;;;;22.86;63.02;101625.63;5051862;28;20107;-64
2021/09/11 10:59:16;;;;;;;4.50;2.58;;;;;;;22.85;63.10;101631.91;5052310;28;20091;-63
2021/09/11 11:02:22;;;;;;;5.85;2.80;;;;;;;22.87;63.08;101631.75;5052171;28;20025;-65
2021/09/11 11:04:48;;;;;;;5.25;2.80;;;;;;;22.87;62.83;101626.44;5051474;28;20107;-63
2021/09/11 11:07:18;;;;;;;8.47;2.90;;;;;;;22.88;62.69;101630.78;5052374;28;20044;-62
2021/09/11 11:09:46;;;;;;;5.57;2.60;;;;;;;22.90;63.08;101621.69;5051502;28;20029;-62
2021/09/11 11:12:17;;;;;;;6.53;2.90;;;;;;;22.90;63.03;101626.19;5051773;28;20163;-64
2021/09/11 11:14:45;;;;;;;4.68;2.72;;;;;;;22.90;62.81;101616.38;5052136;28;20021;-63
2021/09/11 11:17:13;;;;;;;5.10;2.60;;;;;;;22.91;63.22;101618.06;5050765;28;20036;-65
2021/09/11 11:19:43;;;;;;;5.90;2.88;;;;;;;22.93;63.32;101621.41;5052126;28;20476;-64
2021/09/11 11:22:10;;;;;;;6.10;2.90;;;;;;;22.95;62.90;101623.94;5051775;28;20476;-63
2021/09/11 11:24:40;;;;;;;6.07;2.80;;;;;;;22.94;63.19;101625.75;5051287;28;20118;-62
2021/09/11 11:27:11;;;;;;;4.60;2.67;;;;;;;22.94;62.87;101616.94;5052646;28;20025;-61
2021/09/11 11:29:36;;;;;;;6.30;3.05;;;;;;;22.94;63.32;101617.78;5051886;28;20025;-63